Aérodrome :
LOGIN :

S'inscrire | Disclaimer

   EN    FR    IT 

 










Légende :    VFR   VFR Marginal   IFR   IFR Intensif   IFR Très Intensif
Visi : 
Plafond : 
>= 8 km
>= 3000ft
5 à 8 km
1000 à 3000 ft
1500m à 5 km
500 à 1000 ft
800 à 1500m
200 à 500 ft
< 800m
< 200 ft
Symboles :   Orages  Brouillard  Fortes neiges  Fortes précipitations  Vent > 20 kt
SIGMETs :   Divers  Orages  Givrage  Turbulence  Onde Orograph.  Cendres Volcan.







- Altitude de l'aérodrome : 17 ft
- Code IATA : GRQ


EHGG - Groningen Eelde

DERNIER METAR :
  • 230355Z AUTO 20001KT 4900 R05/0650D BR BKN000 12/11 Q1016

METARs EXPIRÉS :
  • 230325Z AUTO 20002KT 6000 OVC000 13/12 Q1016
  • 230255Z AUTO 20002KT 8000 NCD 12/12 Q1016
  • 230225Z AUTO 20001KT 9999 NCD 13/12 Q1016
  • 230155Z AUTO 20001KT 6000 R05/0750D NCD 13/13 Q1016
  • 230125Z AUTO 20002KT 9999 R05/1400D NCD 14/13 Q1016
  • 230055Z AUTO 20001KT 9999 NCD 14/14 Q1016

TAF TAF EHGG
Valide du 23 à 00h jusqu'au 24 à 06h UTC


222251Z 2300/2406 VRB03KT CAVOK
BECMG 2300/2302 2500 BCFG
TEMPO 2302/2305 0300
BECMG 2305/2307 CAVOK
PROB30 2401/2405 4000 MIFG
Pas de NOTAMs connus pour ce terrain.



MET'MAP, la Météo Aéronautique d'un coup d'oeil ! - Copyright ORBIFLY Décembre 2007 - Disclaimer

ORBIFLY MET'MAP TEAM :

Programmation & Développement : Alexandra Zaïnal
Conception & Développement : Baudouin d'Aumeries
Co-Programmation & Développement : Marc-Olivier Méhu
Soutien technique & logistique : Manuel Goepfert

Contact : metmap@orbifly.com




SOURCES & CREDITS :

   NOAA